createdAt,value
2023-03-17T00:00:47.420Z,5.72
2023-03-17T00:01:47.394Z,5.72
2023-03-17T00:02:47.505Z,5.72
2023-03-17T00:03:47.489Z,5.70
2023-03-17T00:04:47.386Z,5.70
2023-03-17T00:05:47.353Z,5.70
2023-03-17T00:06:47.388Z,5.67
2023-03-17T00:07:47.374Z,5.67
2023-03-17T00:08:47.356Z,5.67
2023-03-17T00:09:47.415Z,5.66
2023-03-17T00:10:47.323Z,5.66
2023-03-17T00:11:47.333Z,5.65
2023-03-17T00:12:47.332Z,5.65
2023-03-17T00:13:47.322Z,5.65
2023-03-17T00:14:47.274Z,5.62
2023-03-17T00:15:47.268Z,5.62
2023-03-17T00:16:47.279Z,5.61
2023-03-17T00:17:47.259Z,5.61
2023-03-17T00:18:47.257Z,5.62
2023-03-17T00:19:47.252Z,5.62
2023-03-17T00:20:47.203Z,5.62
2023-03-17T00:21:47.215Z,5.62
2023-03-17T00:22:47.164Z,5.62
2023-03-17T00:23:47.188Z,5.61
2023-03-17T00:24:47.183Z,5.62
2023-03-17T00:25:47.165Z,5.61
2023-03-17T00:26:47.138Z,5.59
2023-03-17T00:27:47.115Z,5.59
2023-03-17T00:28:47.124Z,5.58
2023-03-17T00:29:47.116Z,5.57
2023-03-17T00:30:47.135Z,5.57
2023-03-17T00:31:47.108Z,5.57
2023-03-17T00:32:47.113Z,5.57
2023-03-17T00:33:47.084Z,5.57
2023-03-17T00:34:47.066Z,5.55
2023-03-17T00:35:47.065Z,5.55
2023-03-17T00:36:47.065Z,5.54
2023-03-17T00:37:47.020Z,5.54
2023-03-17T00:38:47.025Z,5.55
2023-03-17T00:39:47.049Z,5.52
2023-03-17T00:40:51.409Z,5.52
2023-03-17T00:41:51.387Z,5.51
2023-03-17T00:42:46.991Z,5.51
2023-03-17T00:43:46.980Z,5.50
2023-03-17T00:44:46.973Z,5.48
2023-03-17T00:45:46.983Z,5.48
2023-03-17T00:46:47.014Z,5.50
2023-03-17T00:47:46.921Z,5.48
2023-03-17T00:48:46.923Z,5.47
2023-03-17T00:49:46.902Z,5.47
2023-03-17T00:50:46.928Z,5.47
2023-03-17T00:51:46.872Z,5.47
2023-03-17T00:52:46.875Z,5.44
2023-03-17T00:53:46.837Z,5.44
2023-03-17T00:54:46.891Z,5.44
2023-03-17T00:55:46.842Z,5.43
2023-03-17T00:56:46.831Z,5.41
2023-03-17T00:57:46.835Z,5.40
2023-03-17T00:58:46.811Z,5.40
2023-03-17T00:59:46.772Z,5.40
2023-03-17T01:00:46.876Z,5.37
2023-03-17T01:01:46.828Z,5.39
2023-03-17T01:02:46.798Z,5.39
2023-03-17T01:03:46.727Z,5.39
2023-03-17T01:04:52.856Z,5.39
2023-03-17T01:05:46.725Z,5.37
2023-03-17T01:06:46.736Z,5.37
2023-03-17T01:07:46.744Z,5.36
2023-03-17T01:08:46.722Z,5.36
2023-03-17T01:09:46.683Z,5.36
2023-03-17T01:10:46.708Z,5.33
2023-03-17T01:11:46.668Z,5.33
2023-03-17T01:12:46.642Z,5.33
2023-03-17T01:13:46.626Z,5.30
2023-03-17T01:14:46.655Z,5.29
2023-03-17T01:15:46.650Z,5.27
2023-03-17T01:16:46.680Z,5.29
2023-03-17T01:17:46.588Z,5.29
2023-03-17T01:18:46.728Z,5.25
2023-03-17T01:19:46.604Z,5.25
2023-03-17T01:20:46.594Z,5.24
2023-03-17T01:21:46.608Z,5.24
2023-03-17T01:22:46.544Z,5.27
2023-03-17T01:23:46.514Z,5.27
2023-03-17T01:24:46.538Z,5.25
2023-03-17T01:25:46.513Z,5.25
2023-03-17T01:26:46.493Z,5.27
2023-03-17T01:27:46.534Z,5.24
2023-03-17T01:28:46.503Z,5.25
2023-03-17T01:29:46.456Z,5.27
2023-03-17T01:30:46.470Z,5.24
2023-03-17T01:31:46.461Z,5.25
2023-03-17T01:32:46.552Z,5.24
2023-03-17T01:33:46.419Z,5.24
2023-03-17T01:34:46.486Z,5.24
2023-03-17T01:35:46.495Z,5.24
2023-03-17T01:36:46.410Z,5.21
2023-03-17T01:37:46.409Z,5.24
2023-03-17T01:38:46.384Z,5.24
2023-03-17T01:39:46.361Z,5.25
2023-03-17T01:40:46.349Z,5.22
2023-03-17T01:41:46.378Z,5.24
2023-03-17T01:42:46.367Z,5.22
2023-03-17T01:43:46.312Z,5.21
2023-03-17T01:44:46.356Z,5.21
2023-03-17T01:45:46.308Z,5.18
2023-03-17T01:46:46.291Z,5.16
2023-03-17T01:47:46.298Z,5.16
2023-03-17T01:48:46.341Z,5.16
2023-03-17T01:49:46.261Z,5.15
2023-03-17T01:50:46.257Z,5.15
2023-03-17T01:51:46.226Z,5.14
2023-03-17T01:52:46.252Z,5.14
2023-03-17T01:53:46.208Z,5.12
2023-03-17T01:54:46.224Z,5.14
2023-03-17T01:55:46.215Z,5.11
2023-03-17T01:56:46.186Z,5.09
2023-03-17T01:57:46.160Z,5.09
2023-03-17T01:58:46.166Z,5.07
2023-03-17T01:59:46.177Z,5.06
2023-03-17T02:00:46.252Z,5.03
2023-03-17T02:01:46.260Z,5.01
2023-03-17T02:02:46.183Z,5.00
2023-03-17T02:03:46.203Z,4.98
2023-03-17T02:04:46.093Z,4.97
2023-03-17T02:05:46.087Z,4.96
2023-03-17T02:06:57.439Z,4.97
2023-03-17T02:07:46.145Z,4.96
2023-03-17T02:08:46.042Z,4.93
2023-03-17T02:09:46.121Z,4.93
2023-03-17T02:10:46.036Z,4.91
2023-03-17T02:11:46.028Z,4.89
2023-03-17T02:12:46.038Z,4.88
2023-03-17T02:13:46.025Z,4.85
2023-03-17T02:14:45.999Z,4.82
2023-03-17T02:15:46.033Z,4.79
2023-03-17T02:16:45.998Z,4.77
2023-03-17T02:17:46.051Z,4.75
2023-03-17T02:18:45.951Z,4.72
2023-03-17T02:19:45.946Z,4.72
2023-03-17T02:20:46.006Z,4.71
2023-03-17T02:21:45.918Z,4.69
2023-03-17T02:22:45.918Z,4.69
2023-03-17T02:23:45.916Z,4.69
2023-03-17T02:24:45.919Z,4.69
2023-03-17T02:25:45.896Z,4.67
2023-03-17T02:26:45.863Z,4.66
2023-03-17T02:27:45.896Z,4.66
2023-03-17T02:28:45.940Z,4.66
2023-03-17T02:29:45.868Z,4.69
2023-03-17T02:30:45.888Z,4.67
2023-03-17T02:31:45.844Z,4.67
2023-03-17T02:32:45.904Z,4.69
2023-03-17T02:33:45.807Z,4.67
2023-03-17T02:34:45.779Z,4.69
2023-03-17T02:35:45.888Z,4.67
2023-03-17T02:36:45.781Z,4.69
2023-03-17T02:37:45.764Z,4.67
2023-03-17T02:38:45.734Z,4.67
2023-03-17T02:39:45.743Z,4.67
2023-03-17T02:40:45.787Z,4.67
2023-03-17T02:41:45.711Z,4.69
2023-03-17T02:42:45.747Z,4.71
2023-03-17T02:43:45.764Z,4.71
2023-03-17T02:44:45.695Z,4.69
2023-03-17T02:45:45.720Z,4.71
2023-03-17T02:46:45.659Z,4.71
2023-03-17T02:47:45.661Z,4.67
2023-03-17T02:48:45.643Z,4.66
2023-03-17T02:49:45.693Z,4.64
2023-03-17T02:50:45.654Z,4.64
2023-03-17T02:51:45.646Z,4.66
2023-03-17T02:52:45.594Z,4.64
2023-03-17T02:53:45.604Z,4.63
2023-03-17T02:54:45.651Z,4.63
2023-03-17T02:55:45.632Z,4.63
2023-03-17T02:56:45.620Z,4.66
2023-03-17T02:57:45.605Z,4.64
2023-03-17T02:58:45.514Z,4.66
2023-03-17T02:59:45.547Z,4.64
2023-03-17T03:00:45.503Z,4.66
2023-03-17T03:01:45.577Z,4.66
2023-03-17T03:02:45.597Z,4.66
2023-03-17T03:03:45.490Z,4.66
2023-03-17T03:04:45.548Z,4.67
2023-03-17T03:05:45.547Z,4.66
2023-03-17T03:06:45.453Z,4.66
2023-03-17T03:07:45.421Z,4.63
2023-03-17T03:08:45.416Z,4.63
2023-03-17T03:09:45.454Z,4.64
2023-03-17T03:10:45.438Z,4.66
2023-03-17T03:11:45.461Z,4.59
2023-03-17T03:12:45.427Z,4.60
2023-03-17T03:13:45.410Z,4.57
2023-03-17T03:14:45.408Z,4.54
2023-03-17T03:15:45.434Z,4.54
2023-03-17T03:16:45.346Z,4.53
2023-03-17T03:17:45.410Z,4.53
2023-03-17T03:18:45.349Z,4.49
2023-03-17T03:19:45.338Z,4.46
2023-03-17T03:20:45.289Z,4.45
2023-03-17T03:21:45.328Z,4.42
2023-03-17T03:22:45.330Z,4.41
2023-03-17T03:23:45.280Z,4.39
2023-03-17T03:24:45.274Z,4.39
2023-03-17T03:25:45.297Z,4.35
2023-03-17T03:26:45.261Z,4.34
2023-03-17T03:27:45.236Z,4.30
2023-03-17T03:28:45.224Z,4.28
2023-03-17T03:29:45.224Z,4.30
2023-03-17T03:30:45.281Z,4.28
2023-03-17T03:31:45.222Z,4.24
2023-03-17T03:32:45.258Z,4.23
2023-03-17T03:33:45.209Z,4.20
2023-03-17T03:34:45.177Z,4.16
2023-03-17T03:35:45.163Z,4.17
2023-03-17T03:36:45.122Z,4.16
2023-03-17T03:37:45.165Z,4.13
2023-03-17T03:38:45.136Z,4.13
2023-03-17T03:39:45.157Z,4.13
2023-03-17T03:40:45.191Z,4.13
2023-03-17T03:41:45.080Z,4.12
2023-03-17T03:42:45.045Z,4.13
2023-03-17T03:43:45.070Z,4.12
2023-03-17T03:44:45.072Z,4.12
2023-03-17T03:45:45.029Z,4.08
2023-03-17T03:46:45.038Z,4.09
2023-03-17T03:47:45.006Z,4.08
2023-03-17T03:48:44.997Z,4.06
2023-03-17T03:49:45.019Z,4.06
2023-03-17T03:50:45.019Z,4.05
2023-03-17T03:51:44.975Z,4.03
2023-03-17T03:52:45.011Z,4.00
2023-03-17T03:53:44.989Z,4.00
2023-03-17T03:54:45.059Z,3.99
2023-03-17T03:55:44.981Z,4.00
2023-03-17T03:56:44.948Z,3.98
2023-03-17T03:57:44.946Z,4.00
2023-03-17T03:58:44.901Z,3.98
2023-03-17T03:59:44.976Z,3.96
2023-03-17T04:00:44.878Z,3.99
2023-03-17T04:01:44.884Z,3.94
2023-03-17T04:02:44.929Z,3.92
2023-03-17T04:03:44.834Z,3.90
2023-03-17T04:04:44.889Z,3.87
2023-03-17T04:05:44.848Z,3.84
2023-03-17T04:06:44.816Z,3.82
2023-03-17T04:07:44.850Z,3.82
2023-03-17T04:08:44.862Z,3.81
2023-03-17T04:09:44.822Z,3.82
2023-03-17T04:10:44.787Z,3.84
2023-03-17T04:11:44.773Z,3.85
2023-03-17T04:12:44.791Z,3.85
2023-03-17T04:13:44.749Z,3.87
2023-03-17T04:14:44.785Z,3.85
2023-03-17T04:15:44.693Z,3.84
2023-03-17T04:16:44.749Z,3.82
2023-03-17T04:17:44.705Z,3.81
2023-03-17T04:18:44.799Z,3.74
2023-03-17T04:19:44.696Z,3.72
2023-03-17T04:20:44.681Z,3.69
2023-03-17T04:21:44.660Z,3.67
2023-03-17T04:22:44.691Z,3.63
2023-03-17T04:23:44.619Z,3.62
2023-03-17T04:24:44.607Z,3.62
2023-03-17T04:25:44.621Z,3.62
2023-03-17T04:26:44.611Z,3.62
2023-03-17T04:27:44.563Z,3.60
2023-03-17T04:28:44.596Z,3.55
2023-03-17T04:29:44.573Z,3.51
2023-03-17T04:30:44.547Z,3.52
2023-03-17T04:31:44.597Z,3.54
2023-03-17T04:32:44.585Z,3.51
2023-03-17T04:33:44.556Z,3.48
2023-03-17T04:34:44.585Z,3.46
2023-03-17T04:35:44.546Z,3.48
2023-03-17T04:36:44.507Z,3.45
2023-03-17T04:37:44.487Z,3.42
2023-03-17T04:38:44.457Z,3.42
2023-03-17T04:39:44.456Z,3.41
2023-03-17T04:40:44.436Z,3.37
2023-03-17T04:41:44.435Z,3.36
2023-03-17T04:42:44.448Z,3.35
2023-03-17T04:43:44.426Z,3.33
2023-03-17T04:44:44.394Z,3.32
2023-03-17T04:45:44.414Z,3.33
2023-03-17T04:46:44.375Z,3.32
2023-03-17T04:47:44.407Z,3.29
2023-03-17T04:48:44.344Z,3.27
2023-03-17T04:49:44.318Z,3.27
2023-03-17T04:50:44.388Z,3.27
2023-03-17T04:51:44.406Z,3.26
2023-03-17T04:52:44.337Z,3.26
2023-03-17T04:53:44.302Z,3.23
2023-03-17T04:54:44.313Z,3.25
2023-03-17T04:55:44.302Z,3.25
2023-03-17T04:56:44.311Z,3.23
2023-03-17T04:57:44.305Z,3.23
2023-03-17T04:58:44.213Z,3.25
2023-03-17T04:59:44.228Z,3.23
2023-03-17T05:00:44.285Z,3.22
2023-03-17T05:01:44.206Z,3.20
2023-03-17T05:02:44.215Z,3.18
2023-03-17T05:03:44.247Z,3.20
2023-03-17T05:04:44.148Z,3.15
2023-03-17T05:05:44.170Z,3.12
2023-03-17T05:06:44.180Z,3.11
2023-03-17T05:07:44.076Z,3.08
2023-03-17T05:08:44.077Z,3.05
2023-03-17T05:09:44.084Z,3.04
2023-03-17T05:10:44.071Z,3.02
2023-03-17T05:11:44.085Z,3.02
2023-03-17T05:12:44.082Z,3.08
2023-03-17T05:13:44.053Z,3.12
2023-03-17T05:14:44.024Z,3.17
2023-03-17T05:15:44.011Z,3.18
2023-03-17T05:16:44.100Z,3.20
2023-03-17T05:17:44.008Z,3.20
2023-03-17T05:18:43.969Z,3.15
2023-03-17T05:19:43.982Z,3.11
2023-03-17T05:20:43.998Z,3.09
2023-03-17T05:21:43.997Z,3.07
2023-03-17T05:22:43.963Z,3.02
2023-03-17T05:23:43.925Z,3.00
2023-03-17T05:24:43.960Z,2.96
2023-03-17T05:25:43.908Z,2.94
2023-03-17T05:26:43.899Z,2.93
2023-03-17T05:27:43.895Z,2.91
2023-03-17T05:28:43.872Z,2.90
2023-03-17T05:29:43.892Z,2.90
2023-03-17T05:30:43.868Z,2.86
2023-03-17T05:31:43.818Z,2.84
2023-03-17T05:32:43.902Z,2.82
2023-03-17T05:33:43.828Z,2.81
2023-03-17T05:34:43.779Z,2.78
2023-03-17T05:35:43.853Z,2.81
2023-03-17T05:36:43.774Z,2.81
2023-03-17T05:37:43.752Z,2.78
2023-03-17T05:38:43.764Z,2.78
2023-03-17T05:39:43.755Z,2.76
2023-03-17T05:40:43.760Z,2.73
2023-03-17T05:41:43.759Z,2.75
2023-03-17T05:42:43.712Z,2.82
2023-03-17T05:43:43.681Z,2.86
2023-03-17T05:44:43.727Z,2.93
2023-03-17T05:45:43.743Z,2.90
2023-03-17T05:46:43.689Z,2.86
2023-03-17T05:47:43.650Z,2.84
2023-03-17T05:48:43.623Z,2.84
2023-03-17T05:49:43.630Z,2.81
2023-03-17T05:50:43.637Z,2.79
2023-03-17T05:51:43.624Z,2.79
2023-03-17T05:52:43.645Z,2.82
2023-03-17T05:53:43.597Z,2.87
2023-03-17T05:54:43.588Z,2.89
2023-03-17T05:55:43.560Z,2.93
2023-03-17T05:56:43.562Z,2.93
2023-03-17T05:57:43.593Z,2.91
2023-03-17T05:58:43.564Z,2.90
2023-03-17T05:59:43.528Z,2.90
2023-03-17T06:00:43.499Z,2.89
2023-03-17T06:01:43.490Z,2.87
2023-03-17T06:02:43.600Z,2.86
2023-03-17T06:03:43.562Z,2.82
2023-03-17T06:04:43.510Z,2.87
2023-03-17T06:05:43.449Z,2.87
2023-03-17T06:06:43.460Z,2.86
2023-03-17T06:07:52.990Z,2.86
2023-03-17T06:08:43.472Z,2.90
2023-03-17T06:09:43.432Z,2.89
2023-03-17T06:10:43.418Z,2.90
2023-03-17T06:11:43.390Z,2.91
2023-03-17T06:12:43.380Z,2.93
2023-03-17T06:13:43.361Z,2.93
2023-03-17T06:14:43.369Z,2.99
2023-03-17T06:15:43.440Z,3.00
2023-03-17T06:16:43.376Z,3.02
2023-03-17T06:17:43.357Z,3.00
2023-03-17T06:18:43.306Z,3.09
2023-03-17T06:19:43.334Z,3.12
2023-03-17T06:20:43.341Z,3.12
2023-03-17T06:21:43.272Z,3.14
2023-03-17T06:23:00.410Z,3.15
2023-03-17T06:23:43.287Z,3.18
2023-03-17T06:24:43.257Z,3.18
2023-03-17T06:25:43.241Z,3.22
2023-03-17T06:26:43.239Z,3.23
2023-03-17T06:27:43.235Z,3.25
2023-03-17T06:28:43.205Z,3.32
2023-03-17T06:29:43.222Z,3.41
2023-03-17T06:30:43.218Z,3.49
2023-03-17T06:31:43.161Z,3.52
2023-03-17T06:32:43.198Z,3.56
2023-03-17T06:33:43.169Z,3.63
2023-03-17T06:34:43.154Z,3.67
2023-03-17T06:35:43.199Z,3.70
2023-03-17T06:36:43.138Z,3.76
2023-03-17T06:37:43.125Z,3.81
2023-03-17T06:38:43.104Z,3.87
2023-03-17T06:39:43.085Z,3.88
2023-03-17T06:40:43.094Z,3.94
2023-03-17T06:41:43.111Z,3.98
2023-03-17T06:42:43.048Z,4.00
2023-03-17T06:43:43.050Z,4.05
2023-03-17T06:44:43.048Z,4.10
2023-03-17T06:45:43.051Z,4.13
2023-03-17T06:46:43.068Z,4.21
2023-03-17T06:47:43.003Z,4.27
2023-03-17T06:48:43.066Z,4.34
2023-03-17T06:49:43.022Z,4.36
2023-03-17T06:50:42.984Z,4.41
2023-03-17T06:51:42.999Z,4.43
2023-03-17T06:52:44.972Z,4.46
2023-03-17T06:53:42.997Z,4.51
2023-03-17T06:54:42.926Z,4.56
2023-03-17T06:55:42.913Z,4.60
2023-03-17T06:56:42.926Z,4.63
2023-03-17T06:57:42.929Z,4.66
2023-03-17T06:58:42.904Z,4.69
2023-03-17T06:59:42.882Z,4.75
2023-03-17T07:00:42.868Z,4.79
2023-03-17T07:01:42.853Z,4.88
2023-03-17T07:02:42.865Z,4.93
2023-03-17T07:03:42.853Z,4.97
2023-03-17T07:04:42.852Z,5.01
2023-03-17T07:05:42.810Z,5.09
2023-03-17T07:06:42.824Z,5.12
2023-03-17T07:07:42.798Z,5.16
2023-03-17T07:08:42.795Z,5.21
2023-03-17T07:09:42.852Z,5.29
2023-03-17T07:10:42.778Z,5.36
2023-03-17T07:11:42.776Z,5.41
2023-03-17T07:12:42.773Z,5.47
2023-03-17T07:13:42.749Z,5.50
2023-03-17T07:14:42.731Z,5.57
2023-03-17T07:15:42.694Z,5.61
2023-03-17T07:16:42.775Z,5.65
2023-03-17T07:17:42.703Z,5.67
2023-03-17T07:18:42.698Z,5.73
2023-03-17T07:19:42.684Z,5.73
2023-03-17T07:20:42.702Z,5.76
2023-03-17T07:21:42.673Z,5.72
2023-03-17T07:22:42.653Z,5.73
2023-03-17T07:23:42.617Z,5.75
2023-03-17T07:24:42.651Z,5.79
2023-03-17T07:25:42.616Z,5.82
2023-03-17T07:26:42.598Z,5.87
2023-03-17T07:27:42.606Z,5.90
2023-03-17T07:28:42.586Z,5.90
2023-03-17T07:29:42.553Z,5.94
2023-03-17T07:30:42.596Z,6.03
2023-03-17T07:31:42.605Z,6.11
2023-03-17T07:32:42.680Z,6.13
2023-03-17T07:33:42.552Z,6.21
2023-03-17T07:34:42.548Z,6.30
2023-03-17T07:35:42.552Z,6.34
2023-03-17T07:36:42.505Z,6.43
2023-03-17T07:37:42.511Z,6.47
2023-03-17T07:38:42.508Z,6.50
2023-03-17T07:39:42.466Z,6.52
2023-03-17T07:40:42.445Z,6.57
2023-03-17T07:41:42.464Z,6.61
2023-03-17T07:42:42.509Z,6.67
2023-03-17T07:43:42.414Z,6.75
2023-03-17T07:44:42.399Z,6.75
2023-03-17T07:45:42.439Z,6.75
2023-03-17T07:46:42.394Z,6.75
2023-03-17T07:47:42.356Z,6.70
2023-03-17T07:48:42.355Z,6.68
2023-03-17T07:49:42.636Z,6.71
2023-03-17T07:50:42.336Z,6.79
2023-03-17T07:51:42.337Z,6.85
2023-03-17T07:52:42.320Z,6.92
2023-03-17T07:53:42.291Z,6.99
2023-03-17T07:54:43.118Z,7.04
2023-03-17T07:55:42.267Z,7.16
2023-03-17T07:56:42.269Z,7.24
2023-03-17T07:57:42.343Z,7.25
2023-03-17T07:58:42.280Z,7.33
2023-03-17T07:59:42.245Z,7.42
2023-03-17T08:00:42.244Z,7.54
2023-03-17T08:01:42.247Z,7.62
2023-03-17T08:02:42.342Z,7.73
2023-03-17T08:03:42.248Z,7.77
2023-03-17T08:04:42.187Z,7.77
2023-03-17T08:05:42.161Z,7.78
2023-03-17T08:06:42.151Z,7.80
2023-03-17T08:07:42.171Z,7.84
2023-03-17T08:08:42.182Z,7.95
2023-03-17T08:09:42.134Z,8.01
2023-03-17T08:10:42.172Z,8.10
2023-03-17T08:11:42.144Z,8.06
2023-03-17T08:12:42.104Z,8.10
2023-03-17T08:13:42.087Z,8.04
2023-03-17T08:14:42.081Z,8.04
2023-03-17T08:15:42.100Z,8.10
2023-03-17T08:16:42.134Z,8.13
2023-03-17T08:17:42.055Z,8.29
2023-03-17T08:18:42.029Z,8.39
2023-03-17T08:19:42.065Z,8.41
2023-03-17T08:20:42.032Z,8.49
2023-03-17T08:21:41.978Z,8.53
2023-03-17T08:22:41.999Z,8.60
2023-03-17T08:23:41.985Z,8.62
2023-03-17T08:24:41.960Z,8.67
2023-03-17T08:25:41.974Z,8.72
2023-03-17T08:26:41.967Z,8.75
2023-03-17T08:27:41.977Z,8.81
2023-03-17T08:28:41.938Z,8.80
2023-03-17T08:29:41.934Z,8.83
2023-03-17T08:30:42.025Z,8.90
2023-03-17T08:31:42.509Z,9.03
2023-03-17T08:32:41.952Z,9.15
2023-03-17T08:33:41.864Z,9.32
2023-03-17T08:34:41.845Z,9.37
2023-03-17T08:35:41.906Z,9.41
2023-03-17T08:36:41.831Z,9.51
2023-03-17T08:37:41.820Z,9.63
2023-03-17T08:38:41.849Z,9.72
2023-03-17T08:39:41.804Z,9.80
2023-03-17T08:40:41.803Z,9.91
2023-03-17T08:41:41.810Z,10.09
2023-03-17T08:42:41.767Z,10.26
2023-03-17T08:43:41.766Z,10.27
2023-03-17T08:44:43.928Z,10.26
2023-03-17T08:45:41.822Z,10.28
2023-03-17T08:46:41.715Z,10.27
2023-03-17T08:47:41.732Z,10.27
2023-03-17T08:48:41.725Z,10.26
2023-03-17T08:49:41.700Z,10.34
2023-03-17T08:50:41.691Z,10.38
2023-03-17T08:51:41.694Z,10.42
2023-03-17T08:52:41.673Z,10.41
2023-03-17T08:53:41.660Z,10.43
2023-03-17T08:54:41.638Z,10.49
2023-03-17T08:55:41.639Z,10.70
2023-03-17T08:56:41.606Z,10.90
2023-03-17T08:57:41.585Z,11.00
2023-03-17T08:58:41.648Z,10.97
2023-03-17T08:59:41.592Z,11.04
2023-03-17T09:00:41.559Z,11.12
2023-03-17T09:01:41.613Z,11.09
2023-03-17T09:02:41.602Z,11.16
2023-03-17T09:03:41.534Z,11.23
2023-03-17T09:04:41.552Z,11.20
2023-03-17T09:05:41.500Z,11.27
2023-03-17T09:06:51.833Z,11.40
2023-03-17T09:07:41.636Z,11.54
2023-03-17T09:08:41.487Z,11.69
2023-03-17T09:09:41.476Z,11.80
2023-03-17T09:10:44.095Z,11.74
2023-03-17T09:11:41.448Z,11.73
2023-03-17T09:12:41.454Z,11.74
2023-03-17T09:13:41.458Z,11.89
2023-03-17T09:14:44.149Z,12.04
2023-03-17T09:15:41.457Z,12.13
2023-03-17T09:16:41.400Z,12.26
2023-03-17T09:17:41.409Z,12.41
2023-03-17T09:18:41.373Z,12.54
2023-03-17T09:19:41.390Z,12.65
2023-03-17T09:20:41.411Z,12.69
2023-03-17T09:21:41.340Z,12.55
2023-03-17T09:22:41.319Z,12.48
2023-03-17T09:23:41.307Z,12.36
2023-03-17T09:24:41.334Z,12.28
2023-03-17T09:25:41.286Z,12.26
2023-03-17T09:26:41.290Z,12.36
2023-03-17T09:27:41.291Z,12.47
2023-03-17T09:28:41.385Z,12.53
2023-03-17T09:29:41.279Z,12.55
2023-03-17T09:30:41.255Z,12.48
2023-03-17T09:31:41.258Z,12.35
2023-03-17T09:32:41.263Z,12.35
2023-03-17T09:33:41.222Z,12.32
2023-03-17T09:34:41.205Z,12.38
2023-03-17T09:35:41.291Z,12.29
2023-03-17T09:36:41.193Z,12.29
2023-03-17T09:37:41.183Z,12.32
2023-03-17T09:38:41.147Z,12.36
2023-03-17T09:39:41.132Z,12.29
2023-03-17T09:40:41.133Z,12.21
2023-03-17T09:41:41.113Z,12.13
2023-03-17T09:42:41.124Z,12.11
2023-03-17T09:43:41.111Z,12.04
2023-03-17T09:44:41.089Z,11.99
2023-03-17T09:45:43.447Z,12.03
2023-03-17T09:46:41.115Z,12.07
2023-03-17T09:47:42.730Z,12.13
2023-03-17T09:48:41.039Z,12.22
2023-03-17T09:49:41.051Z,12.32
2023-03-17T09:50:41.031Z,12.40
2023-03-17T09:51:41.009Z,12.44
2023-03-17T09:52:40.988Z,12.55
2023-03-17T09:53:40.984Z,12.62
2023-03-17T09:54:40.986Z,12.66
2023-03-17T09:55:40.954Z,12.69
2023-03-17T09:56:40.956Z,12.66
2023-03-17T09:57:40.950Z,12.68
2023-03-17T09:58:40.928Z,12.65
2023-03-17T09:59:40.908Z,12.54
2023-03-17T10:00:40.896Z,12.55
2023-03-17T10:01:40.986Z,12.55
2023-03-17T10:02:40.887Z,12.55
2023-03-17T10:03:40.876Z,12.61
2023-03-17T10:04:40.881Z,12.65
2023-03-17T10:05:40.982Z,12.65
2023-03-17T10:06:40.873Z,12.68
2023-03-17T10:07:40.836Z,12.72
2023-03-17T10:08:40.836Z,12.65
2023-03-17T10:09:40.818Z,12.72
2023-03-17T10:10:40.816Z,12.76
2023-03-17T10:11:40.791Z,12.81
2023-03-17T10:12:40.791Z,12.80
2023-03-17T10:13:40.792Z,12.80
2023-03-17T10:14:40.803Z,12.91
2023-03-17T10:15:40.746Z,12.96
2023-03-17T10:16:40.728Z,13.01
2023-03-17T10:17:40.730Z,12.98
2023-03-17T10:18:40.720Z,12.95
2023-03-17T10:19:40.698Z,12.96
2023-03-17T10:20:40.701Z,12.95
2023-03-17T10:21:40.710Z,12.96
2023-03-17T10:22:40.661Z,12.95
2023-03-17T10:23:40.661Z,12.90
2023-03-17T10:24:40.676Z,12.86
2023-03-17T10:25:40.664Z,12.79
2023-03-17T10:26:40.622Z,12.66
2023-03-17T10:27:40.620Z,12.59
2023-03-17T10:28:40.601Z,12.59
2023-03-17T10:29:40.596Z,12.63
2023-03-17T10:30:40.578Z,12.65
2023-03-17T10:31:40.699Z,12.69
2023-03-17T10:32:40.611Z,12.73
2023-03-17T10:33:40.581Z,12.79
2023-03-17T10:34:40.540Z,12.90
2023-03-17T10:35:40.647Z,13.01
2023-03-17T10:36:40.531Z,13.09
2023-03-17T10:37:42.574Z,13.20
2023-03-17T10:38:40.507Z,13.23
2023-03-17T10:39:40.497Z,13.30
2023-03-17T10:40:40.466Z,13.36
2023-03-17T10:41:40.473Z,13.38
2023-03-17T10:42:40.445Z,13.51
2023-03-17T10:43:40.451Z,13.63
2023-03-17T10:44:40.424Z,13.75
2023-03-17T10:45:42.757Z,13.91
2023-03-17T10:46:40.519Z,14.09
2023-03-17T10:47:40.470Z,14.26
2023-03-17T10:48:40.378Z,14.44
2023-03-17T10:49:40.370Z,14.44
2023-03-17T10:50:40.359Z,14.44
2023-03-17T10:51:40.367Z,14.44
2023-03-17T10:52:40.338Z,14.30
2023-03-17T10:53:40.334Z,14.22
2023-03-17T10:54:40.340Z,14.19
2023-03-17T10:55:40.318Z,14.18
2023-03-17T10:56:40.304Z,14.13
2023-03-17T10:57:40.271Z,14.16
2023-03-17T10:58:40.293Z,14.21
2023-03-17T10:59:42.252Z,14.26
2023-03-17T11:00:40.311Z,14.26
2023-03-17T11:01:40.240Z,14.27
2023-03-17T11:02:40.255Z,14.33
2023-03-17T11:03:40.298Z,14.44
2023-03-17T11:04:40.246Z,14.52
2023-03-17T11:05:40.216Z,14.63
2023-03-17T11:06:40.256Z,14.71
2023-03-17T11:07:40.202Z,14.71
2023-03-17T11:08:40.187Z,14.73
2023-03-17T11:09:40.196Z,14.79
2023-03-17T11:10:40.149Z,14.71
2023-03-17T11:11:40.168Z,14.67
2023-03-17T11:12:40.140Z,14.56
2023-03-17T11:13:40.126Z,14.49
2023-03-17T11:14:40.102Z,14.51
2023-03-17T11:15:40.112Z,14.55
2023-03-17T11:16:40.175Z,14.56
2023-03-17T11:17:40.077Z,14.56
2023-03-17T11:18:40.098Z,14.56
2023-03-17T11:19:40.093Z,14.56
2023-03-17T11:20:40.067Z,14.52
2023-03-17T11:21:40.023Z,14.44
2023-03-17T11:22:40.061Z,14.37
2023-03-17T11:23:40.062Z,14.40
2023-03-17T11:24:39.994Z,14.40
2023-03-17T11:25:40.040Z,14.46
2023-03-17T11:26:39.989Z,14.59
2023-03-17T11:27:39.962Z,14.59
2023-03-17T11:28:39.970Z,14.74
2023-03-17T11:29:40.010Z,14.93
2023-03-17T11:30:39.935Z,15.14
2023-03-17T11:31:40.001Z,15.35
2023-03-17T11:32:39.986Z,15.58
2023-03-17T11:33:39.895Z,15.78
2023-03-17T11:34:39.893Z,15.91
2023-03-17T11:35:39.990Z,16.08
2023-03-17T11:36:39.918Z,16.22
2023-03-17T11:37:39.877Z,16.33
2023-03-17T11:38:39.864Z,16.42
2023-03-17T11:39:39.872Z,16.39
2023-03-17T11:40:39.949Z,16.36
2023-03-17T11:41:39.858Z,16.28
2023-03-17T11:42:39.824Z,16.21
2023-03-17T11:43:39.813Z,16.08
2023-03-17T11:44:39.819Z,16.03
2023-03-17T11:45:39.835Z,16.02
2023-03-17T11:46:39.767Z,16.02
2023-03-17T11:47:39.765Z,16.00
2023-03-17T11:48:39.737Z,15.98
2023-03-17T11:49:39.751Z,16.03
2023-03-17T11:50:39.722Z,15.98
2023-03-17T11:51:39.741Z,15.95
2023-03-17T11:52:39.789Z,15.93
2023-03-17T11:53:39.703Z,15.91
2023-03-17T11:54:39.775Z,15.85
2023-03-17T11:55:39.708Z,15.83
2023-03-17T11:56:40.382Z,15.88
2023-03-17T11:57:39.665Z,15.91
2023-03-17T11:58:39.700Z,15.95
2023-03-17T11:59:39.663Z,16.03
2023-03-17T12:00:39.936Z,16.13
2023-03-17T12:01:39.639Z,16.25
2023-03-17T12:02:39.650Z,16.39
2023-03-17T12:03:39.688Z,16.26
2023-03-17T12:04:39.656Z,16.21
2023-03-17T12:05:39.573Z,16.10
2023-03-17T12:06:39.610Z,16.06
2023-03-17T12:07:39.550Z,15.95
2023-03-17T12:08:39.572Z,15.90
2023-03-17T12:09:39.543Z,15.91
2023-03-17T12:10:39.537Z,15.93
2023-03-17T12:11:39.510Z,15.95
2023-03-17T12:12:39.511Z,15.98
2023-03-17T12:13:39.552Z,16.02
2023-03-17T12:14:39.488Z,16.02
2023-03-17T12:15:39.489Z,16.03
2023-03-17T12:16:39.445Z,16.00
2023-03-17T12:17:39.453Z,15.91
2023-03-17T12:18:39.467Z,15.76
2023-03-17T12:19:39.416Z,15.68
2023-03-17T12:20:39.451Z,15.66
2023-03-17T12:21:39.401Z,15.51
2023-03-17T12:22:39.465Z,15.44
2023-03-17T12:23:39.384Z,15.44
2023-03-17T12:24:39.355Z,15.50
2023-03-17T12:25:39.382Z,15.54
2023-03-17T12:26:39.346Z,15.50
2023-03-17T12:27:39.361Z,15.48
2023-03-17T12:28:39.352Z,15.44
2023-03-17T12:29:39.316Z,15.30
2023-03-17T12:30:39.322Z,15.15
2023-03-17T12:31:39.355Z,15.12
2023-03-17T12:32:39.350Z,15.14
2023-03-17T12:33:39.274Z,15.10
2023-03-17T12:34:39.258Z,15.04
2023-03-17T12:35:39.342Z,15.01
2023-03-17T12:36:39.249Z,14.97
2023-03-17T12:37:39.226Z,14.97
2023-03-17T12:38:39.209Z,14.99
2023-03-17T12:39:39.229Z,15.03
2023-03-17T12:40:39.191Z,14.97
2023-03-17T12:41:39.178Z,14.93
2023-03-17T12:42:39.196Z,14.93
2023-03-17T12:43:39.147Z,14.95
2023-03-17T12:44:39.129Z,14.99
2023-03-17T12:45:39.150Z,14.96
2023-03-17T12:46:39.270Z,14.93
2023-03-17T12:47:39.113Z,14.99
2023-03-17T12:48:39.134Z,14.99
2023-03-17T12:49:39.106Z,15.03
2023-03-17T12:50:39.079Z,15.05
2023-03-17T12:51:39.068Z,15.08
2023-03-17T12:52:39.060Z,15.19
2023-03-17T12:53:39.097Z,15.19
2023-03-17T12:54:39.051Z,15.17
2023-03-17T12:55:39.022Z,15.15
2023-03-17T12:56:38.989Z,15.17
2023-03-17T12:57:39.024Z,15.17
2023-03-17T12:58:39.013Z,15.26
2023-03-17T12:59:38.982Z,15.29
2023-03-17T13:00:39.014Z,15.26
2023-03-17T13:01:39.022Z,15.32
2023-03-17T13:02:38.957Z,15.35
2023-03-17T13:03:39.020Z,15.29
2023-03-17T13:04:38.930Z,15.20
2023-03-17T13:05:38.923Z,15.23
2023-03-17T13:06:38.886Z,15.26
2023-03-17T13:07:38.933Z,15.26
2023-03-17T13:08:38.903Z,15.25
2023-03-17T13:09:38.901Z,15.27